Dawn, TX (79025)

4:53 PM CDT on August 31, 2015 (GMT -0500)
Hereford Municipal | | Change Station
CLOSE
Current Station
Airport
Location: Hereford,
Elevation: 3786 ft
Nearby Weather Stations

Elev 3786 ft 34.86 °N, 102.33 °W | Updated 23 minutes ago

Clear
Clear
90 °F
Feels Like 90 °F
N
20
Wind Variable Wind from South
Gusts 28 mph

Today
High -- | Low -- °F
--% Chance of Precip.
Yesterday
High -- | Low -- °F
Precip. -- in
7:20 AM 8:16 PM
Waning Gibbous, 93% visible
Pressure 30.02 in
Visibility 10.0 miles
Clouds Clear
Dew Point 51 °F
Humidity 26%
Rainfall 0.00 in
Snow Depth Not available.
UV 7 out of 12
Pollen 9.70 out of 12
Air Quality Not available.
Flu Activity Not available.
METAR KHRX 312130Z AUTO 18017G24KT 10SM CLR 32/11 A3002 RMK AO2 T03240108
Pressure 30.02 in
Visibility 10.0 miles
Clouds Clear
Dew Point 51 °F
Humidity 26%
Rainfall 0.00 in
Snow Depth Not available.
UV 7 out of 12
Pollen 9.70 out of 12
Air Quality Not available.
Flu Activity Not available.
METAR KHRX 312130Z AUTO 18017G24KT 10SM CLR 32/11 A3002 RMK AO2 T03240108

10-Day Weather Forecast

×

Almanac

Astronomy

Aug. 31, 2015 Rise Set
Actual Time
Civil Twilight
Nautical Twilight
Astronomical Twilight
Moon
Length of Visible Light
Length of Day
Tomorrow will be .
, % of the Moon is Illuminated

Today's Extremes

State Highs State Lows

Community

WunderPhotos

Upload Photos

1,851,377 photos uploaded!

WunderBlogs® & News

Nearby

Air Quality

  Air Quality AQ Index Pollutant
Not available.

Snow Depth

Station Depth Elevation

Earthquake Activity

City Distance Mag. Time & Date
Minimum magnitude displayed is 2.5.

Coastal Water Temperatures

Place Temperature

Stations

Nearby Weather Stations

Station Location Temp. Windchill Dew Point Humidity Wind Precip. Elev Updated Type